Boulder, CO (80301)

8:16 PM MDT on September 01, 2014 (GMT -0600)
63rd St & Jay Rd | Change Station
CLOSE
Current Station
Personal Weather Station
Location: Boulder, CO
Elevation: 5202 ft
Nearby Weather Stations

Elev 5202 ft 40.06 °N, 105.21 °W | Updated 4 minutes ago

Clear
Clear
67.3 °F
Feels Like 67.3 °F
N
0.0
Wind Variable Wind from NNE
Gusts 0.0 mph

Today
High -- | Low -- °F
--% Chance of Precip.
Yesterday
High -- | Low -- °F
Precip. -- in
6:28 AM 7:32 PM
Waxing Crescent, 46% visible
Pressure 30.05 in
Visibility 10.0 miles
Clouds Clear
Dew Point 50 °F
Humidity 54%
Rainfall 0.00 in
Snow Depth 0 in , 0 in
UV 0 out of 12
Pollen 9.90 out of 12
Ozone Moderate
PM2.5 Good
Flu Activity Not available.
METAR KBDU 020156Z AUTO 00000KT 10SM CLR 21/07 A3005 RMK AO2

More Conditions Fewer Conditions

Pressure 30.05 in
Visibility 10.0 miles
Clouds Clear
Dew Point 50 °F
Humidity 54%
Rainfall 0.00 in
Snow Depth 0 in , 0 in
UV 0 out of 12
Pollen 9.90 out of 12
Ozone Moderate
PM2.5 Good
Flu Activity Not available.
METAR KBDU 020156Z AUTO 00000KT 10SM CLR 21/07 A3005 RMK AO2

More Conditions Fewer Conditions

10-Day Weather Forecast

Almanac

Astronomy

Sep. 01, 2014 Rise Set
Actual Time 6:28 AM MDT 7:32 PM MDT
Civil Twilight 6:00 AM MDT 7:59 PM MDT
Nautical Twilight 5:27 AM MDT 8:33 PM MDT
Astronomical Twilight 4:53 AM MDT 9:07 PM MDT
Moon 1:16 PM MDT (9/1) 11:35 PM MDT (9/1)
Length of Visible Light 13h 59m
Length of Day
13h 03m
Tomorrow will be 2m 31s shorter.
Waxing Crescent, 46% of the Moon is Illuminated
Today
Waxing Crescent
Sep 2
First Quarter
Sep 8
Full
Sep 15
Last Quarter
Sep 24
New

Today's Extremes

State Highs State Lows

Community

WunderPhotos

Upload Photos

1,749,493 photos uploaded!

Nearby

Air Quality

  Air Quality AQ Index Pollutant
Yesterday Good
OZONE
Yesterday Good
PM10
Current Moderate
OZONE
Current Good
PM2.5
Monday Good
OZONE
Monday Good
PM2.5
Tuesday Moderate
OZONE
Tuesday Good
PM2.5

Snow Depth

Station Depth Elevation
Niwot 0 in 9910 ft
University Camp 0 in 10300 ft
Wild Basin 0 in 9560 ft
Willow Park 9 in 10700 ft
Lake Irene 0 in 10700 ft

Earthquake Activity

City Distance Mag. Time & Date
No recent earthquake activity has been reported nearby.
Minimum magnitude displayed is 2.5.

Coastal Water Temperatures

Place Temperature
No Stations Reporting

Nearby Weather Stations